Time;durP1;ratioP1;P1;durP2;ratioP2;P2;SDS_P1;SDS_P2;PMS_P1;PMS_P2;Temp;Humidity;BMP_temperature;BMP_pressure;BME280_temperature;BME280_humidity;BME280_pressure;Samples;Min_cycle;Max_cycle;Signal;HPM_P1;HPM_P2
2021/10/21 00:00:24;;;;;;;4.27;3.87;;;13.40;99.90;;;;;;5035202;28;20507;-72
2021/10/21 00:02:50;;;;;;;5.97;3.80;;;13.40;99.90;;;;;;5031889;28;20192;-72
2021/10/21 00:05:15;;;;;;;3.80;3.40;;;13.40;99.90;;;;;;5040527;28;20193;-72
2021/10/21 00:07:41;;;;;;;4.20;3.90;;;13.40;99.90;;;;;;5035823;28;20194;-72
2021/10/21 00:10:09;;;;;;;4.10;3.70;;;13.40;99.90;;;;;;5041341;28;20535;-71
2021/10/21 00:12:35;;;;;;;6.83;4.37;;;13.40;99.90;;;;;;5037767;28;20583;-72
2021/10/21 00:15:02;;;;;;;4.13;3.83;;;13.40;99.90;;;;;;5037436;28;20437;-72
2021/10/21 00:17:28;;;;;;;6.40;4.20;;;13.40;99.90;;;;;;5036155;28;20508;-72
2021/10/21 00:19:54;;;;;;;3.73;3.50;;;13.40;99.90;;;;;;5039182;28;20425;-72
2021/10/21 00:22:19;;;;;;;4.33;3.90;;;13.40;99.90;;;;;;5037624;28;21073;-71
2021/10/21 00:24:45;;;;;;;4.03;3.73;;;13.30;99.90;;;;;;5040885;28;20189;-71
2021/10/21 00:27:11;;;;;;;4.00;3.70;;;13.40;99.90;;;;;;5035617;28;20264;-70
2021/10/21 00:29:37;;;;;;;4.47;4.00;;;13.40;99.90;;;;;;5040318;28;20435;-70
2021/10/21 00:32:03;;;;;;;4.30;3.47;;;13.40;99.90;;;;;;5039559;28;20213;-70
2021/10/21 00:34:29;;;;;;;4.50;4.20;;;13.40;99.90;;;;;;5039516;28;20186;-70
2021/10/21 00:36:55;;;;;;;4.73;4.37;;;13.40;99.90;;;;;;5036346;28;20483;-70
2021/10/21 00:39:20;;;;;;;6.37;4.33;;;13.40;99.90;;;;;;5036683;28;20192;-70
2021/10/21 00:41:46;;;;;;;3.80;3.60;;;13.40;99.90;;;;;;5039736;28;20182;-70
2021/10/21 00:44:13;;;;;;;4.47;4.07;;;13.40;99.90;;;;;;5040300;28;20296;-71
2021/10/21 00:46:40;;;;;;;6.53;4.10;;;13.40;99.90;;;;;;5034768;28;20177;-70
2021/10/21 00:49:06;;;;;;;6.40;4.33;;;13.40;99.90;;;;;;5039609;28;21156;-71
2021/10/21 00:51:33;;;;;;;5.63;4.50;;;13.30;99.90;;;;;;5037822;28;20427;-70
2021/10/21 00:53:59;;;;;;;4.87;4.10;;;13.30;99.90;;;;;;5037943;28;20436;-70
2021/10/21 00:56:26;;;;;;;3.83;3.50;;;13.30;99.90;;;;;;4998640;28;1145012;-70
2021/10/21 00:58:53;;;;;;;4.73;4.07;;;13.20;99.90;;;;;;5034321;28;20190;-71
2021/10/21 01:01:19;;;;;;;3.50;3.20;;;13.20;99.90;;;;;;5034780;28;20427;-71
2021/10/21 01:03:46;;;;;;;5.30;4.90;;;13.20;99.90;;;;;;5038294;28;20428;-71
2021/10/21 01:06:13;;;;;;;4.43;3.90;;;13.20;99.90;;;;;;5037423;28;20751;-71
2021/10/21 01:08:40;;;;;;;4.40;4.00;;;13.20;99.90;;;;;;5037375;28;20443;-71
2021/10/21 01:11:06;;;;;;;4.70;4.30;;;13.20;99.90;;;;;;5038603;28;20475;-71
2021/10/21 01:13:32;;;;;;;4.53;3.77;;;13.20;99.90;;;;;;5036237;28;20523;-71
2021/10/21 01:16:16;;;;;;;4.13;3.20;;;13.10;99.90;;;;;;5037589;28;20546;-71
2021/10/21 01:18:43;;;;;;;7.13;4.47;;;13.20;99.90;;;;;;5037797;28;20916;-71
2021/10/21 01:21:10;;;;;;;6.10;4.17;;;13.20;99.90;;;;;;5036864;28;20527;-70
2021/10/21 01:23:37;;;;;;;3.80;3.50;;;13.20;99.90;;;;;;5038537;28;20487;-70
2021/10/21 01:26:10;;;;;;;4.30;3.90;;;13.20;99.90;;;;;;5037028;28;22991;-70
2021/10/21 01:28:37;;;;;;;5.13;4.10;;;13.20;99.90;;;;;;5036381;28;20466;-70
2021/10/21 01:31:03;;;;;;;4.33;4.00;;;13.30;99.90;;;;;;5037904;28;20518;-70
2021/10/21 01:33:29;;;;;;;5.10;4.60;;;13.30;99.90;;;;;;5038315;28;20437;-71
2021/10/21 01:35:55;;;;;;;6.87;4.50;;;13.30;99.90;;;;;;5038093;28;20428;-70
2021/10/21 01:38:21;;;;;;;4.23;3.93;;;13.30;99.90;;;;;;5039429;28;20430;-70
2021/10/21 01:40:47;;;;;;;5.10;3.47;;;13.30;99.90;;;;;;5034633;28;20428;-70
2021/10/21 01:43:13;;;;;;;3.47;3.23;;;13.30;99.90;;;;;;5035298;28;20806;-70
2021/10/21 01:45:39;;;;;;;4.43;4.13;;;13.30;99.90;;;;;;5036652;28;20820;-70
2021/10/21 01:48:06;;;;;;;4.53;4.10;;;13.30;99.90;;;;;;5035551;28;20433;-70
2021/10/21 01:50:32;;;;;;;3.87;3.27;;;13.30;99.90;;;;;;5038473;28;20438;-69
2021/10/21 01:52:58;;;;;;;5.57;4.40;;;13.30;99.90;;;;;;5036830;28;21022;-70
2021/10/21 01:55:25;;;;;;;4.63;4.27;;;13.40;99.90;;;;;;5042649;28;20459;-74
2021/10/21 01:57:51;;;;;;;4.60;4.20;;;13.30;99.90;;;;;;5046093;28;20197;-74
2021/10/21 02:00:21;;;;;;;9.13;4.77;;;13.30;99.90;;;;;;5043519;28;20478;-74
2021/10/21 02:02:47;;;;;;;5.97;4.27;;;13.40;99.90;;;;;;5049378;28;20832;-74
2021/10/21 02:05:15;;;;;;;3.77;3.47;;;13.40;99.90;;;;;;5041648;28;20427;-74
2021/10/21 02:07:41;;;;;;;4.40;4.00;;;13.50;99.90;;;;;;5041137;28;20438;-74
2021/10/21 02:10:16;;;;;;;5.00;4.50;;;13.40;99.90;;;;;;5046280;28;20440;-74
2021/10/21 02:12:43;;;;;;;4.53;4.10;;;13.40;99.90;;;;;;5050338;28;20819;-74
2021/10/21 02:15:09;;;;;;;5.13;3.80;;;13.40;99.90;;;;;;5048936;28;20437;-74
2021/10/21 02:17:34;;;;;;;6.40;4.10;;;13.40;99.90;;;;;;5051920;28;20463;-74
2021/10/21 02:20:00;;;;;;;4.27;3.87;;;13.40;99.90;;;;;;5050731;28;20431;-74
2021/10/21 02:22:26;;;;;;;4.43;4.00;;;13.40;99.90;;;;;;5055653;28;20585;-74
2021/10/21 02:24:52;;;;;;;5.00;4.13;;;13.30;99.90;;;;;;5059273;28;20174;-74
2021/10/21 02:27:18;;;;;;;4.27;3.87;;;13.30;99.90;;;;;;5053904;28;20178;-74
2021/10/21 02:29:44;;;;;;;4.30;3.90;;;13.30;99.90;;;;;;5056537;28;20444;-74
2021/10/21 02:32:09;;;;;;;4.50;4.20;;;13.30;99.90;;;;;;5054563;28;20190;-74
2021/10/21 02:34:35;;;;;;;4.00;3.70;;;13.30;99.90;;;;;;5060482;28;20197;-74
2021/10/21 02:37:01;;;;;;;5.73;4.10;;;13.30;99.90;;;;;;5060431;28;20206;-74
2021/10/21 02:39:26;;;;;;;3.90;3.60;;;13.30;99.90;;;;;;5061035;28;20178;-74
2021/10/21 02:41:52;;;;;;;3.83;3.30;;;13.30;99.90;;;;;;5062175;28;20480;-74
2021/10/21 02:44:18;;;;;;;4.17;3.87;;;13.30;99.90;;;;;;5062403;28;20238;-74
2021/10/21 02:46:44;;;;;;;4.10;3.80;;;13.30;99.90;;;;;;5060777;28;20217;-74
2021/10/21 02:49:10;;;;;;;3.90;3.60;;;13.30;99.90;;;;;;5059877;28;20181;-74
2021/10/21 02:51:35;;;;;;;4.27;3.97;;;13.30;99.90;;;;;;5061371;28;20431;-74
2021/10/21 02:54:01;;;;;;;4.60;3.90;;;13.30;99.90;;;;;;5060492;28;20228;-74
2021/10/21 02:56:27;;;;;;;4.13;3.70;;;13.20;99.90;;;;;;5051935;28;20209;-74
2021/10/21 02:58:52;;;;;;;4.47;4.07;;;13.20;99.90;;;;;;5045944;28;20196;-74
2021/10/21 03:01:18;;;;;;;4.47;4.17;;;13.20;99.90;;;;;;5048625;28;20237;-74
2021/10/21 03:03:44;;;;;;;5.00;4.60;;;13.20;99.90;;;;;;5049996;28;20173;-74
2021/10/21 03:06:10;;;;;;;4.30;3.90;;;13.20;99.90;;;;;;5048259;28;20454;-74
2021/10/21 03:08:35;;;;;;;5.13;4.47;;;13.20;99.90;;;;;;5045650;28;20600;-74
2021/10/21 03:11:01;;;;;;;5.20;4.10;;;13.20;99.90;;;;;;5052418;28;20192;-74
2021/10/21 03:13:26;;;;;;;5.80;5.30;;;13.20;99.90;;;;;;5056610;28;20182;-74
2021/10/21 03:15:52;;;;;;;6.10;4.37;;;13.20;99.90;;;;;;5050837;28;20181;-73
2021/10/21 03:18:18;;;;;;;5.77;4.43;;;13.20;99.90;;;;;;5040050;28;20181;-74
2021/10/21 03:20:43;;;;;;;5.40;4.97;;;13.20;99.90;;;;;;5041587;28;20180;-74
2021/10/21 03:23:09;;;;;;;5.37;4.87;;;13.30;99.90;;;;;;5043776;28;20317;-74
2021/10/21 03:25:35;;;;;;;5.83;4.87;;;13.30;99.90;;;;;;5039814;28;20230;-74
2021/10/21 03:28:00;;;;;;;5.27;4.87;;;13.30;99.90;;;;;;5041021;28;20208;-74
2021/10/21 03:30:26;;;;;;;8.03;5.50;;;13.40;99.90;;;;;;5040725;28;20178;-73
2021/10/21 03:32:52;;;;;;;6.40;5.80;;;13.40;99.90;;;;;;5037673;28;20189;-74
2021/10/21 03:35:18;;;;;;;6.43;5.40;;;13.40;99.90;;;;;;5042816;28;20183;-73
2021/10/21 03:37:44;;;;;;;5.13;4.70;;;13.40;99.90;;;;;;5039688;28;20197;-74
2021/10/21 03:40:11;;;;;;;6.67;5.80;;;13.40;99.90;;;;;;5039655;28;20436;-74
2021/10/21 03:42:37;;;;;;;5.80;5.30;;;13.50;99.90;;;;;;5039467;28;20178;-74
2021/10/21 03:45:04;;;;;;;6.57;5.17;;;13.50;99.90;;;;;;5041409;28;20459;-74
2021/10/21 03:47:30;;;;;;;8.77;5.17;;;13.50;99.90;;;;;;5037010;28;20493;-74
2021/10/21 03:49:56;;;;;;;6.00;5.17;;;13.50;99.90;;;;;;5037273;28;20452;-74
2021/10/21 03:52:21;;;;;;;6.70;5.13;;;13.40;99.90;;;;;;5039991;28;20209;-74
2021/10/21 03:54:48;;;;;;;5.50;5.00;;;13.40;99.90;;;;;;5041725;28;20634;-74
2021/10/21 03:57:14;;;;;;;7.13;5.30;;;13.50;99.90;;;;;;5040733;28;20573;-74
2021/10/21 03:59:40;;;;;;;5.43;4.87;;;13.50;99.90;;;;;;5038696;28;20459;-74
2021/10/21 04:02:06;;;;;;;4.80;4.40;;;13.50;99.90;;;;;;5038302;28;20432;-74
2021/10/21 04:04:32;;;;;;;6.87;5.63;;;13.60;99.90;;;;;;5039875;28;21011;-74
2021/10/21 04:06:58;;;;;;;5.33;4.83;;;13.50;99.90;;;;;;5036621;28;20748;-74
2021/10/21 04:09:24;;;;;;;5.10;4.63;;;13.50;99.90;;;;;;5039362;28;20462;-74
2021/10/21 04:11:50;;;;;;;5.50;3.70;;;13.60;99.90;;;;;;5037935;28;20181;-73
2021/10/21 04:14:16;;;;;;;4.47;4.07;;;13.70;99.90;;;;;;5037217;28;20178;-73
2021/10/21 04:16:41;;;;;;;2.73;2.10;;;13.70;99.90;;;;;;5036010;28;20527;-72
2021/10/21 04:19:07;;;;;;;3.73;2.27;;;13.30;99.90;;;;;;5037215;28;20681;-72
2021/10/21 04:21:33;;;;;;;1.83;1.50;;;13.10;99.90;;;;;;5035007;28;20189;-72
2021/10/21 04:23:58;;;;;;;3.50;2.27;;;12.80;99.90;;;;;;5039067;28;20189;-72
2021/10/21 04:26:24;;;;;;;2.80;1.90;;;12.70;99.90;;;;;;5038409;28;20749;-72
2021/10/21 04:28:49;;;;;;;2.00;1.90;;;12.60;99.90;;;;;;5040450;28;20182;-73
2021/10/21 04:31:15;;;;;;;1.63;1.53;;;12.50;99.90;;;;;;5039353;28;20187;-73
2021/10/21 04:33:41;;;;;;;2.00;1.90;;;12.30;99.90;;;;;;5039272;28;20181;-73
2021/10/21 04:36:07;;;;;;;1.70;1.60;;;12.30;99.90;;;;;;5037205;28;20509;-73
2021/10/21 04:38:32;;;;;;;2.03;1.73;;;12.30;99.90;;;;;;5038911;28;20209;-73
2021/10/21 04:40:58;;;;;;;1.60;1.50;;;12.30;99.90;;;;;;5038717;28;20192;-73
2021/10/21 04:43:24;;;;;;;2.60;1.90;;;12.30;99.90;;;;;;5036198;28;20191;-73
2021/10/21 04:45:49;;;;;;;2.10;1.90;;;12.30;99.90;;;;;;5038579;28;20185;-73
2021/10/21 04:48:15;;;;;;;6.63;2.00;;;12.20;99.90;;;;;;5036756;28;20191;-73
2021/10/21 04:50:41;;;;;;;2.37;1.80;;;12.20;99.90;;;;;;5038363;28;20259;-73
2021/10/21 04:53:07;;;;;;;3.53;2.10;;;12.20;99.90;;;;;;5039702;28;20495;-73
2021/10/21 04:55:35;;;;;;;6.20;2.10;;;12.10;99.90;;;;;;5037871;28;20500;-73
2021/10/21 04:58:02;;;;;;;1.90;1.80;;;12.10;99.90;;;;;;5037561;28;20201;-73
2021/10/21 05:00:28;;;;;;;2.83;1.60;;;12.10;99.90;;;;;;5036028;28;20993;-73
2021/10/21 05:02:54;;;;;;;4.63;1.90;;;12.10;99.90;;;;;;5036098;28;20760;-73
2021/10/21 05:05:20;;;;;;;3.43;2.07;;;12.10;99.90;;;;;;5040845;28;20428;-73
2021/10/21 05:07:45;;;;;;;5.20;2.20;;;12.10;99.90;;;;;;5034456;28;20750;-73
2021/10/21 05:10:11;;;;;;;4.30;2.00;;;12.10;99.90;;;;;;5031204;28;20185;-73
2021/10/21 05:12:37;;;;;;;1.90;1.80;;;12.20;99.90;;;;;;5038221;28;20177;-73
2021/10/21 05:15:03;;;;;;;2.03;1.83;;;12.20;99.90;;;;;;5034893;28;20185;-73
2021/10/21 05:17:29;;;;;;;1.63;1.50;;;12.20;99.90;;;;;;5035580;28;20233;-73
2021/10/21 05:19:54;;;;;;;1.73;1.47;;;12.20;99.90;;;;;;5037957;28;20811;-73
2021/10/21 05:22:20;;;;;;;1.40;1.17;;;12.20;99.90;;;;;;5039782;28;20324;-73
2021/10/21 05:24:46;;;;;;;1.40;1.23;;;12.20;99.90;;;;;;5035528;28;20263;-73
2021/10/21 05:27:12;;;;;;;1.57;1.47;;;12.20;99.90;;;;;;5038175;28;20247;-73
2021/10/21 05:29:38;;;;;;;1.97;1.70;;;12.20;99.90;;;;;;5039336;28;20432;-73
2021/10/21 05:32:07;;;;;;;3.47;1.83;;;12.20;99.90;;;;;;5038525;28;20551;-73
2021/10/21 05:34:37;;;;;;;1.37;1.27;;;12.20;99.90;;;;;;5044491;28;20432;-73
2021/10/21 05:37:04;;;;;;;3.00;1.23;;;12.20;99.90;;;;;;5042376;28;20459;-73
2021/10/21 05:39:31;;;;;;;1.70;1.40;;;12.10;99.90;;;;;;5044254;28;20429;-74
2021/10/21 05:41:57;;;;;;;3.03;1.50;;;12.10;99.90;;;;;;5041201;28;20439;-74
2021/10/21 05:44:23;;;;;;;1.17;1.17;;;12.10;99.90;;;;;;5044429;28;20428;-73
2021/10/21 05:46:49;;;;;;;1.73;1.10;;;12.10;99.90;;;;;;5042488;28;20436;-74
2021/10/21 05:49:17;;;;;;;1.23;1.03;;;12.10;99.90;;;;;;5041877;28;20446;-74
2021/10/21 05:51:43;;;;;;;2.20;1.20;;;12.10;99.90;;;;;;5042889;28;20431;-74
2021/10/21 05:54:09;;;;;;;1.20;1.17;;;12.10;99.90;;;;;;5042826;28;20435;-74
2021/10/21 05:56:34;;;;;;;1.10;1.00;;;12.10;99.90;;;;;;5042229;28;20958;-73
2021/10/21 05:59:00;;;;;;;1.20;1.10;;;12.10;99.90;;;;;;5041392;28;20500;-73
2021/10/21 06:01:26;;;;;;;2.30;1.30;;;12.00;99.90;;;;;;5044062;28;20189;-74
2021/10/21 06:03:51;;;;;;;1.47;1.00;;;12.00;99.90;;;;;;5041256;28;20177;-74
2021/10/21 06:06:20;;;;;;;2.30;1.10;;;12.00;99.90;;;;;;5040104;28;20181;-74
2021/10/21 06:08:45;;;;;;;1.40;1.30;;;12.00;99.90;;;;;;5039492;28;20647;-74
2021/10/21 06:11:12;;;;;;;1.37;1.10;;;12.00;99.90;;;;;;5040561;28;20440;-74
2021/10/21 06:13:38;;;;;;;1.10;1.00;;;12.00;99.90;;;;;;5039041;28;20189;-73
2021/10/21 06:16:05;;;;;;;1.73;1.57;;;12.00;99.90;;;;;;5039794;28;20443;-72
2021/10/21 06:18:32;;;;;;;2.40;1.20;;;12.00;99.90;;;;;;5038616;28;20436;-73
2021/10/21 06:21:00;;;;;;;1.10;1.00;;;11.90;99.90;;;;;;5042571;28;20443;-72
2021/10/21 06:23:25;;;;;;;1.90;1.37;;;11.80;99.90;;;;;;5040816;28;20436;-72
2021/10/21 06:25:51;;;;;;;1.70;1.40;;;11.80;99.90;;;;;;5044579;28;20428;-73
2021/10/21 06:28:17;;;;;;;3.53;1.13;;;11.80;99.90;;;;;;5042579;28;20803;-72
2021/10/21 06:30:45;;;;;;;1.30;1.20;;;11.80;99.90;;;;;;5027466;28;20474;-72
2021/10/21 06:33:12;;;;;;;1.23;1.00;;;11.70;99.90;;;;;;5035665;28;20231;-73
2021/10/21 06:35:39;;;;;;;4.73;1.60;;;11.70;99.90;;;;;;5036816;28;20463;-73
2021/10/21 06:38:05;;;;;;;3.93;1.80;;;11.60;99.90;;;;;;5038563;28;20472;-73
2021/10/21 06:40:31;;;;;;;2.90;1.87;;;11.60;99.90;;;;;;5040197;28;20548;-73
2021/10/21 06:42:56;;;;;;;2.50;1.50;;;11.60;99.90;;;;;;5036048;28;20214;-73
2021/10/21 06:45:23;;;;;;;2.50;2.07;;;11.60;99.90;;;;;;5039038;28;20235;-73
2021/10/21 06:47:49;;;;;;;2.90;2.30;;;11.50;99.90;;;;;;5038315;28;20174;-73
2021/10/21 06:50:15;;;;;;;2.30;2.03;;;11.50;99.90;;;;;;5041781;28;20459;-73
2021/10/21 06:52:44;;;;;;;3.63;2.00;;;11.50;99.90;;;;;;5031445;28;20204;-74
2021/10/21 06:55:10;;;;;;;3.93;2.30;;;11.50;99.90;;;;;;5040197;28;20464;-74
2021/10/21 06:57:53;;;;;;;3.67;2.07;;;11.50;99.90;;;;;;5038327;28;20821;-74
2021/10/21 07:00:19;;;;;;;2.30;2.20;;;11.40;99.90;;;;;;5038346;28;20207;-74
2021/10/21 07:02:46;;;;;;;2.17;2.00;;;11.40;99.90;;;;;;5034331;28;20433;-74
2021/10/21 07:05:13;;;;;;;2.10;2.00;;;11.50;99.90;;;;;;5038420;28;20855;-74
2021/10/21 07:07:42;;;;;;;2.37;2.17;;;11.40;99.90;;;;;;5039786;28;20428;-74
2021/10/21 07:10:09;;;;;;;6.67;1.97;;;11.40;99.90;;;;;;5038616;28;20432;-74
2021/10/21 07:12:36;;;;;;;2.10;1.60;;;11.40;99.90;;;;;;5038879;28;20433;-74
2021/10/21 07:15:04;;;;;;;5.70;1.83;;;11.40;99.90;;;;;;5040739;28;20522;-74
2021/10/21 07:17:30;;;;;;;3.63;1.80;;;11.40;99.90;;;;;;5038056;28;20955;-73
2021/10/21 07:19:56;;;;;;;2.47;2.00;;;11.40;99.90;;;;;;5037867;28;20427;-74
2021/10/21 07:22:22;;;;;;;2.70;1.67;;;11.40;99.90;;;;;;5038354;28;20462;-74
2021/10/21 07:24:48;;;;;;;3.00;1.80;;;11.30;99.90;;;;;;5037525;28;20207;-74
2021/10/21 07:27:13;;;;;;;2.03;1.93;;;11.30;99.90;;;;;;5038089;28;21027;-73
2021/10/21 07:29:39;;;;;;;2.10;2.00;;;11.30;99.90;;;;;;5038036;28;20523;-74
2021/10/21 07:32:05;;;;;;;1.37;1.27;;;11.20;99.90;;;;;;5036976;28;20215;-74
2021/10/21 07:34:30;;;;;;;1.67;1.47;;;11.20;99.90;;;;;;5041696;28;20181;-74
2021/10/21 07:36:58;;;;;;;1.27;1.10;;;11.10;99.90;;;;;;5038867;28;20561;-73
2021/10/21 07:39:24;;;;;;;1.00;0.90;;;11.00;99.90;;;;;;5040290;28;20189;-73
2021/10/21 07:41:50;;;;;;;1.60;0.90;;;11.00;99.90;;;;;;5031740;28;20445;-73
2021/10/21 07:44:17;;;;;;;1.00;0.90;;;10.90;99.90;;;;;;5036791;28;20474;-73
2021/10/21 07:46:46;;;;;;;1.60;1.07;;;10.90;99.90;;;;;;5037947;28;20758;-73
2021/10/21 07:49:12;;;;;;;2.03;0.83;;;10.80;99.90;;;;;;5039007;28;20439;-73
2021/10/21 07:51:38;;;;;;;1.43;0.90;;;10.80;99.90;;;;;;5039259;28;20444;-74
2021/10/21 07:54:05;;;;;;;0.93;0.90;;;10.70;99.90;;;;;;5034020;28;20545;-73
2021/10/21 07:56:31;;;;;;;1.90;0.80;;;10.70;99.90;;;;;;5037306;28;20532;-74
2021/10/21 07:58:57;;;;;;;1.87;0.83;;;10.70;99.90;;;;;;5040445;28;20423;-74
2021/10/21 08:01:23;;;;;;;0.97;0.90;;;10.70;99.90;;;;;;5038706;28;20523;-74
2021/10/21 08:03:49;;;;;;;0.70;0.70;;;10.60;99.90;;;;;;5040327;28;20270;-75
2021/10/21 08:06:14;;;;;;;0.63;0.63;;;10.60;99.90;;;;;;5039863;28;20530;-75
2021/10/21 08:08:40;;;;;;;0.70;0.70;;;10.60;99.90;;;;;;5040042;28;20188;-76
2021/10/21 08:11:06;;;;;;;1.90;1.00;;;10.50;99.90;;;;;;5036648;28;20181;-73
2021/10/21 08:13:31;;;;;;;0.87;0.87;;;10.50;99.90;;;;;;5039785;28;20201;-73
2021/10/21 08:15:57;;;;;;;0.80;0.80;;;10.50;99.90;;;;;;5037324;28;20202;-74
2021/10/21 08:18:23;;;;;;;0.70;0.70;;;10.50;99.90;;;;;;5038432;28;20219;-78
2021/10/21 08:20:49;;;;;;;1.27;0.80;;;10.50;99.90;;;;;;5039174;28;20941;-74
2021/10/21 08:23:16;;;;;;;0.80;0.80;;;10.50;99.90;;;;;;5034719;28;20431;-78
2021/10/21 08:25:42;;;;;;;3.40;0.90;;;10.50;99.90;;;;;;5042856;28;20436;-76
2021/10/21 08:28:11;;;;;;;2.50;0.90;;;10.50;99.90;;;;;;5039676;28;20498;-73
2021/10/21 08:30:39;;;;;;;1.40;0.60;;;10.50;99.90;;;;;;5038431;28;20196;-73
2021/10/21 08:33:05;;;;;;;0.80;0.80;;;10.50;99.90;;;;;;5036304;28;20749;-73
2021/10/21 08:35:31;;;;;;;1.10;0.80;;;10.50;99.90;;;;;;5041199;28;20436;-73
2021/10/21 08:38:02;;;;;;;1.33;0.70;;;10.40;99.90;;;;;;5039327;28;20459;-73
2021/10/21 08:40:29;;;;;;;2.33;1.20;;;10.40;99.90;;;;;;5033197;28;20435;-73
2021/10/21 08:42:55;;;;;;;1.53;0.80;;;10.30;99.90;;;;;;5034607;28;20454;-73
2021/10/21 08:45:26;;;;;;;1.63;0.70;;;10.30;99.90;;;;;;5039822;28;20531;-73
2021/10/21 08:47:55;;;;;;;1.13;0.90;;;10.30;99.90;;;;;;5035743;28;20456;-73
2021/10/21 08:50:22;;;;;;;2.10;0.90;;;10.30;99.90;;;;;;5039513;28;20906;-73
2021/10/21 08:52:47;;;;;;;1.53;0.97;;;10.30;99.90;;;;;;5039481;28;20562;-73
2021/10/21 08:55:14;;;;;;;0.80;0.80;;;10.40;99.90;;;;;;5036582;28;20555;-73
2021/10/21 08:57:40;;;;;;;1.47;0.80;;;10.40;99.90;;;;;;5038019;28;20205;-73
2021/10/21 09:00:11;;;;;;;2.80;0.80;;;10.40;99.90;;;;;;5038946;28;20520;-73
2021/10/21 09:02:53;;;;;;;1.70;0.87;;;10.40;99.90;;;;;;5040972;28;20262;-73
2021/10/21 09:08:05;;;;;;;6.43;1.90;;;10.40;99.90;;;;;;5042457;28;20490;-73
2021/10/21 09:10:31;;;;;;;2.20;1.00;;;10.40;99.90;;;;;;5044008;28;20815;-73
2021/10/21 09:12:59;;;;;;;3.50;1.23;;;10.40;99.90;;;;;;5044978;28;20447;-73
2021/10/21 09:15:27;;;;;;;4.37;1.10;;;10.40;99.90;;;;;;5043816;28;20432;-73
2021/10/21 09:17:54;;;;;;;1.10;1.00;;;10.40;99.90;;;;;;5042528;28;20546;-73
2021/10/21 09:20:40;;;;;;;1.90;0.90;;;10.40;99.90;;;;;;5039566;28;20424;-75
2021/10/21 09:23:11;;;;;;;4.43;0.90;;;10.40;99.90;;;;;;5039718;28;20431;-76
2021/10/21 09:25:39;;;;;;;4.00;1.27;;;10.40;99.90;;;;;;5039224;28;20925;-76
2021/10/21 09:28:25;;;;;;;6.87;1.17;;;10.40;99.90;;;;;;5038904;28;20476;-76
2021/10/21 09:30:54;;;;;;;7.60;2.33;;;10.50;99.90;;;;;;5039998;28;21046;-76
2021/10/21 09:33:20;;;;;;;3.20;1.40;;;10.60;99.90;;;;;;5037937;28;20431;-75
2021/10/21 09:35:58;;;;;;;6.80;1.53;;;10.60;99.90;;;;;;5042507;28;20431;-75
2021/10/21 09:38:29;;;;;;;1.40;1.30;;;10.60;99.90;;;;;;5040187;28;20441;-75
2021/10/21 09:40:59;;;;;;;3.57;1.87;;;10.70;99.90;;;;;;5040155;28;20450;-75
2021/10/21 09:43:32;;;;;;;4.13;1.50;;;10.70;99.90;;;;;;5043399;28;20427;-74
2021/10/21 09:45:59;;;;;;;3.80;1.40;;;10.60;99.90;;;;;;5042620;28;20438;-75
2021/10/21 09:48:24;;;;;;;2.70;1.50;;;10.60;99.90;;;;;;5041221;28;20459;-75
2021/10/21 09:50:51;;;;;;;4.47;1.43;;;10.60;99.90;;;;;;5042287;28;20718;-75
2021/10/21 09:53:19;;;;;;;1.93;1.17;;;10.60;99.90;;;;;;5040772;28;20433;-75
2021/10/21 09:56:04;;;;;;;3.50;1.47;;;10.60;99.90;;;;;;5043183;28;20248;-75
2021/10/21 09:58:33;;;;;;;2.83;1.27;;;10.60;99.90;;;;;;5041453;28;20440;-75
2021/10/21 10:01:14;;;;;;;1.57;0.87;;;10.60;99.90;;;;;;5038176;28;20433;-75
2021/10/21 10:03:42;;;;;;;2.13;1.00;;;10.60;99.90;;;;;;5041355;28;20423;-75
2021/10/21 10:06:08;;;;;;;4.83;1.00;;;10.60;99.90;;;;;;5041509;28;20455;-75
2021/10/21 10:08:35;;;;;;;4.23;1.23;;;10.60;99.90;;;;;;5041782;28;20429;-74
2021/10/21 10:11:06;;;;;;;2.60;0.97;;;10.70;99.90;;;;;;5044049;28;20733;-72
2021/10/21 10:13:31;;;;;;;5.17;1.10;;;10.70;99.90;;;;;;5047688;28;20427;-73
2021/10/21 10:15:57;;;;;;;1.53;1.10;;;10.70;99.90;;;;;;5047255;28;20508;-74
2021/10/21 10:18:25;;;;;;;1.20;1.20;;;10.70;99.90;;;;;;5044725;28;20188;-72
2021/10/21 10:21:03;;;;;;;5.07;1.33;;;10.70;99.90;;;;;;5043120;28;20192;-74
2021/10/21 10:23:32;;;;;;;2.90;1.43;;;10.70;99.90;;;;;;5041343;28;20460;-73
2021/10/21 10:25:58;;;;;;;1.37;1.27;;;10.60;99.90;;;;;;5043760;28;20749;-74
2021/10/21 10:28:24;;;;;;;2.53;1.67;;;10.50;99.90;;;;;;5040412;28;20440;-74
2021/10/21 10:30:56;;;;;;;2.50;1.13;;;10.50;99.90;;;;;;5040383;28;20527;-75
2021/10/21 10:33:42;;;;;;;2.43;1.13;;;10.60;99.90;;;;;;5039413;28;20471;-75
2021/10/21 10:36:30;;;;;;;1.47;1.03;;;10.50;99.90;;;;;;5041649;28;20454;-75
2021/10/21 10:38:57;;;;;;;1.87;1.20;;;10.50;99.90;;;;;;5036237;28;20445;-74
2021/10/21 10:41:44;;;;;;;2.30;1.00;;;10.40;99.90;;;;;;5042256;28;20452;-74
2021/10/21 10:44:10;;;;;;;2.30;0.97;;;10.50;99.90;;;;;;5041593;28;20481;-75
2021/10/21 10:46:51;;;;;;;1.27;0.97;;;10.60;99.90;;;;;;5040268;28;20885;-75
2021/10/21 10:49:41;;;;;;;2.30;1.00;;;10.60;99.90;;;;;;5040396;28;20470;-73
2021/10/21 10:52:12;;;;;;;1.93;1.50;;;10.50;99.90;;;;;;5042640;28;20850;-73
2021/10/21 10:54:50;;;;;;;1.53;1.03;;;10.60;99.90;;;;;;5040370;28;20658;-73
2021/10/21 10:57:24;;;;;;;2.40;1.47;;;10.70;99.90;;;;;;5040314;28;20762;-73
2021/10/21 10:59:57;;;;;;;1.67;1.00;;;10.70;99.90;;;;;;5038037;28;20463;-73
2021/10/21 11:02:26;;;;;;;5.03;1.40;;;10.80;99.90;;;;;;5037713;28;20454;-73
2021/10/21 11:04:51;;;;;;;1.07;1.00;;;11.10;99.90;;;;;;5038031;28;20943;-73
2021/10/21 11:07:22;;;;;;;3.70;1.43;;;11.10;99.90;;;;;;5041552;28;20515;-73
2021/10/21 11:09:52;;;;;;;1.93;1.20;;;11.10;99.90;;;;;;5041017;28;20916;-72
2021/10/21 11:12:19;;;;;;;1.73;1.00;;;11.10;99.90;;;;;;5035821;28;20469;-73
2021/10/21 11:14:47;;;;;;;2.63;1.20;;;11.00;99.90;;;;;;5038603;28;20439;-73
2021/10/21 11:17:13;;;;;;;2.10;1.10;;;11.00;99.90;;;;;;5038365;28;20452;-73
2021/10/21 11:19:49;;;;;;;2.50;1.40;;;11.00;99.90;;;;;;5038368;28;20869;-74
2021/10/21 11:22:20;;;;;;;4.40;1.57;;;10.90;99.90;;;;;;5040023;28;20427;-73
2021/10/21 11:24:49;;;;;;;9.13;2.43;;;10.90;99.90;;;;;;5040504;28;20427;-73
2021/10/21 11:27:42;;;;;;;4.37;1.67;;;10.80;99.90;;;;;;5036670;28;20423;-73
2021/10/21 11:30:13;;;;;;;4.37;1.37;;;10.90;99.90;;;;;;5036356;28;20877;-72
2021/10/21 11:32:40;;;;;;;5.40;1.23;;;10.90;99.90;;;;;;5041163;28;20420;-73
2021/10/21 11:35:15;;;;;;;2.47;1.03;;;11.00;99.90;;;;;;5051713;28;20427;-73
2021/10/21 11:37:43;;;;;;;1.50;1.40;;;11.10;99.90;;;;;;5034587;28;20450;-72
2021/10/21 11:40:32;;;;;;;6.60;1.33;;;11.10;99.90;;;;;;5037858;28;20424;-72
2021/10/21 11:43:07;;;;;;;5.40;1.90;;;11.00;99.90;;;;;;5031004;28;20584;-72
2021/10/21 11:45:36;;;;;;;2.10;1.30;;;11.00;99.90;;;;;;5038307;28;20420;-72
2021/10/21 11:48:08;;;;;;;4.10;1.13;;;11.00;99.90;;;;;;5036517;28;20441;-72
2021/10/21 11:50:36;;;;;;;4.93;1.60;;;10.80;99.90;;;;;;5036145;28;20462;-72
2021/10/21 11:53:03;;;;;;;1.23;1.13;;;10.70;99.90;;;;;;5038053;28;20439;-72
2021/10/21 11:55:30;;;;;;;5.73;2.00;;;10.70;99.90;;;;;;5037837;28;20439;-73
2021/10/21 11:57:57;;;;;;;3.60;1.47;;;10.50;99.90;;;;;;5038727;28;20485;-72
2021/10/21 12:00:26;;;;;;;2.07;1.90;;;10.50;99.90;;;;;;5037150;28;20424;-73
2021/10/21 12:02:57;;;;;;;3.43;1.90;;;10.60;99.90;;;;;;5036579;28;20428;-73
2021/10/21 12:05:28;;;;;;;3.53;1.77;;;10.60;99.90;;;;;;5038618;28;20420;-73
2021/10/21 12:07:55;;;;;;;3.80;1.30;;;10.70;99.90;;;;;;5039482;28;20534;-73
2021/10/21 12:10:32;;;;;;;6.00;1.73;;;10.70;99.90;;;;;;5037835;28;20981;-73
2021/10/21 12:12:59;;;;;;;2.10;1.30;;;10.70;99.90;;;;;;5036567;28;20427;-73
2021/10/21 12:15:31;;;;;;;9.83;1.90;;;10.70;99.90;;;;;;5039408;28;20443;-73
2021/10/21 12:17:57;;;;;;;7.93;2.27;;;10.60;99.90;;;;;;5038013;28;20448;-73
2021/10/21 12:20:53;;;;;;;6.20;1.70;;;10.60;99.90;;;;;;5039312;28;20485;-73
2021/10/21 12:23:28;;;;;;;7.70;1.93;;;10.70;99.90;;;;;;5036804;28;20211;-73
2021/10/21 12:25:57;;;;;;;4.70;1.33;;;10.70;99.90;;;;;;5038508;28;20448;-73
2021/10/21 12:28:40;;;;;;;2.90;1.20;;;10.80;99.90;;;;;;5037943;28;20435;-73
2021/10/21 12:31:36;;;;;;;3.97;1.50;;;10.80;99.90;;;;;;5038052;28;20424;-73
2021/10/21 12:34:11;;;;;;;3.47;1.50;;;10.70;99.90;;;;;;5031179;28;20924;-73
2021/10/21 12:36:50;;;;;;;1.70;1.03;;;10.60;99.90;;;;;;5036423;28;21016;-72
2021/10/21 12:39:30;;;;;;;5.17;1.70;;;10.60;99.90;;;;;;5038373;28;20458;-73
2021/10/21 12:42:00;;;;;;;5.30;1.50;;;10.60;99.90;;;;;;5038235;28;20426;-73
2021/10/21 12:44:36;;;;;;;5.73;1.43;;;10.60;99.90;;;;;;5039410;28;20828;-73
2021/10/21 12:47:25;;;;;;;4.93;1.50;;;10.50;99.90;;;;;;5039323;28;20424;-73
2021/10/21 12:49:57;;;;;;;11.53;2.00;;;10.50;99.90;;;;;;5033321;28;20909;-73
2021/10/21 12:52:25;;;;;;;4.50;1.57;;;10.50;99.90;;;;;;5039900;28;20428;-73